Time;durP1;ratioP1;P1;durP2;ratioP2;P2;SDS_P1;SDS_P2;PMS_P1;PMS_P2;Temp;Humidity;BMP_temperature;BMP_pressure;BME280_temperature;BME280_humidity;BME280_pressure;Samples;Min_cycle;Max_cycle;Signal;HPM_P1;HPM_P2
2021/05/29 00:00:06;;;;;;;3.63;2.97;;;;;;;;;;4986330;28;20254;-78
2021/05/29 00:02:31;;;;;;;3.47;3.00;;;;;;;;;;4988522;28;20223;-79
2021/05/29 00:04:58;;;;;;;2.60;2.40;;;;;;;;;;4986410;28;20220;-78
2021/05/29 00:07:26;;;;;;;3.37;2.40;;;;;;;;;;4988347;28;20262;-78
2021/05/29 00:09:51;;;;;;;2.80;2.50;;;;;;;;;;4985186;28;20202;-81
2021/05/29 00:12:17;;;;;;;3.17;2.60;;;;;;;;;;4984465;28;20952;-80
2021/05/29 00:14:42;;;;;;;3.70;2.80;;;;;;;;;;4984275;28;20291;-80
2021/05/29 00:17:09;;;;;;;3.10;2.80;;;;;;;;;;4981694;28;20216;-79
2021/05/29 00:19:35;;;;;;;3.10;2.80;;;;;;;;;;4992368;28;20640;-81
2021/05/29 00:22:01;;;;;;;4.77;2.87;;;;;;;;;;4981070;28;20212;-78
2021/05/29 00:24:29;;;;;;;3.20;2.73;;;;;;;;;;4988494;28;20196;-79
2021/05/29 00:26:54;;;;;;;5.20;3.20;;;;;;;;;;4983975;28;20187;-78
2021/05/29 00:29:19;;;;;;;3.90;3.47;;;;;;;;;;4988968;28;20191;-79
2021/05/29 00:31:44;;;;;;;3.50;2.77;;;;;;;;;;4985958;28;20250;-79
2021/05/29 00:34:10;;;;;;;3.80;3.33;;;;;;;;;;4986672;28;20191;-80
2021/05/29 00:36:36;;;;;;;3.03;2.80;;;;;;;;;;4990354;28;20208;-81
2021/05/29 00:39:03;;;;;;;3.40;2.97;;;;;;;;;;4985629;28;20376;-81
2021/05/29 00:41:28;;;;;;;4.47;3.10;;;;;;;;;;4985541;28;20228;-81
2021/05/29 00:43:53;;;;;;;3.20;2.90;;;;;;;;;;4986595;28;20226;-78
2021/05/29 00:46:19;;;;;;;3.33;2.60;;;;;;;;;;4979719;28;20240;-79
2021/05/29 00:48:44;;;;;;;3.10;2.80;;;;;;;;;;4985099;28;20895;-80
2021/05/29 00:51:10;;;;;;;3.37;3.07;;;;;;;;;;4994729;28;20188;-80
2021/05/29 00:53:37;;;;;;;4.27;3.10;;;;;;;;;;4986353;28;20200;-80
2021/05/29 00:56:07;;;;;;;4.50;3.47;;;;;;;;;;4981799;28;20199;-77
2021/05/29 00:58:34;;;;;;;6.03;3.43;;;;;;;;;;4985085;28;20849;-78
2021/05/29 01:01:00;;;;;;;4.17;3.40;;;;;;;;;;4991698;28;20200;-78
2021/05/29 01:03:27;;;;;;;4.13;3.40;;;;;;;;;;4979616;28;20192;-79
2021/05/29 01:05:53;;;;;;;4.00;3.27;;;;;;;;;;4991355;28;20195;-78
2021/05/29 01:08:18;;;;;;;3.43;3.13;;;;;;;;;;4984598;28;20208;-79
2021/05/29 01:10:43;;;;;;;3.77;3.40;;;;;;;;;;4982723;28;20196;-78
2021/05/29 01:13:10;;;;;;;3.60;3.30;;;;;;;;;;4984918;28;20278;-78
2021/05/29 01:15:40;;;;;;;4.50;3.23;;;;;;;;;;4983722;28;20660;-77
2021/05/29 01:18:08;;;;;;;6.47;4.83;;;;;;;;;;4988895;28;20745;-78
2021/05/29 01:20:36;;;;;;;7.07;5.50;;;;;;;;;;4989433;28;20688;-78
2021/05/29 01:23:01;;;;;;;6.60;5.27;;;;;;;;;;4988277;28;20263;-78
2021/05/29 01:25:43;;;;;;;7.80;6.53;;;;;;;;;;4983465;28;20296;-77
2021/05/29 01:28:11;;;;;;;9.63;7.50;;;;;;;;;;4995171;28;20582;-78
2021/05/29 01:31:01;;;;;;;9.60;7.80;;;;;;;;;;4982765;28;20199;-77
2021/05/29 01:33:28;;;;;;;8.67;7.70;;;;;;;;;;4982033;28;20250;-75
2021/05/29 01:35:59;;;;;;;12.70;8.97;;;;;;;;;;4988910;28;20197;-77
2021/05/29 01:38:25;;;;;;;9.97;8.43;;;;;;;;;;4985796;28;20676;-78
2021/05/29 01:40:57;;;;;;;11.20;8.60;;;;;;;;;;4983008;28;20514;-75
2021/05/29 01:43:24;;;;;;;11.87;9.27;;;;;;;;;;4985293;28;20551;-77
2021/05/29 01:45:50;;;;;;;13.73;9.90;;;;;;;;;;4984072;28;20774;-76
2021/05/29 01:48:18;;;;;;;13.83;10.17;;;;;;;;;;4988037;28;20243;-78
2021/05/29 01:50:46;;;;;;;13.43;10.10;;;;;;;;;;4991148;28;20202;-77
2021/05/29 01:53:19;;;;;;;15.70;10.63;;;;;;;;;;4984027;28;20342;-77
2021/05/29 01:55:46;;;;;;;11.33;9.10;;;;;;;;;;4986176;28;20585;-76
2021/05/29 01:58:15;;;;;;;13.47;9.70;;;;;;;;;;4981212;28;20248;-76
2021/05/29 02:00:41;;;;;;;13.70;10.17;;;;;;;;;;4978165;28;20199;-75
2021/05/29 02:03:06;;;;;;;11.27;9.57;;;;;;;;;;4981868;28;20644;-76
2021/05/29 02:05:32;;;;;;;14.73;9.87;;;;;;;;;;4991379;28;20198;-76
2021/05/29 02:08:08;;;;;;;13.03;9.47;;;;;;;;;;4980484;28;20211;-76
2021/05/29 02:10:35;;;;;;;9.50;8.50;;;;;;;;;;4987075;28;20202;-76
2021/05/29 02:13:06;;;;;;;12.33;8.90;;;;;;;;;;4984172;28;20192;-76
2021/05/29 02:15:35;;;;;;;10.53;8.50;;;;;;;;;;4988515;28;20191;-76
2021/05/29 02:18:04;;;;;;;11.43;9.07;;;;;;;;;;4980593;28;20303;-76
2021/05/29 02:20:53;;;;;;;12.67;9.40;;;;;;;;;;4978090;28;20280;-77
2021/05/29 02:23:25;;;;;;;13.87;9.40;;;;;;;;;;4985178;28;20204;-76
2021/05/29 02:25:52;;;;;;;11.90;7.97;;;;;;;;;;4982443;28;20195;-77
2021/05/29 02:28:19;;;;;;;12.97;8.80;;;;;;;;;;4987011;28;20599;-75
2021/05/29 02:30:45;;;;;;;12.23;8.83;;;;;;;;;;4979313;28;20184;-76
2021/05/29 02:33:11;;;;;;;12.30;9.03;;;;;;;;;;4985510;28;20197;-76
2021/05/29 02:35:39;;;;;;;12.27;8.63;;;;;;;;;;4984580;28;20201;-76
2021/05/29 02:38:06;;;;;;;9.50;7.43;;;;;;;;;;4989211;28;20235;-76
2021/05/29 02:40:31;;;;;;;12.30;8.40;;;;;;;;;;4986265;28;20197;-77
2021/05/29 02:42:57;;;;;;;9.10;7.30;;;;;;;;;;4993013;28;20219;-76
2021/05/29 02:45:23;;;;;;;10.03;7.40;;;;;;;;;;4990521;28;20258;-76
2021/05/29 02:47:48;;;;;;;12.90;7.80;;;;;;;;;;4990403;28;20203;-75
2021/05/29 02:50:16;;;;;;;12.53;7.47;;;;;;;;;;4988119;28;20489;-76
2021/05/29 02:52:45;;;;;;;10.83;7.47;;;;;;;;;;5001672;28;20218;-76
2021/05/29 02:55:13;;;;;;;10.57;7.80;;;;;;;;;;4986172;28;20282;-76
2021/05/29 02:57:38;;;;;;;10.93;7.10;;;;;;;;;;4992818;28;20213;-76
2021/05/29 03:00:10;;;;;;;11.97;7.90;;;;;;;;;;4988869;28;20187;-76
2021/05/29 03:02:37;;;;;;;12.00;8.10;;;;;;;;;;4987462;28;20191;-75
2021/05/29 03:05:05;;;;;;;11.90;8.23;;;;;;;;;;4990563;28;20180;-76
2021/05/29 03:07:30;;;;;;;11.63;7.63;;;;;;;;;;4990368;28;20214;-76
2021/05/29 03:09:55;;;;;;;11.80;8.07;;;;;;;;;;4992368;28;20192;-76
2021/05/29 03:12:21;;;;;;;12.50;7.90;;;;;;;;;;4989360;28;20203;-76
2021/05/29 03:14:46;;;;;;;10.40;8.07;;;;;;;;;;4994880;28;20647;-76
2021/05/29 03:17:11;;;;;;;10.73;7.07;;;;;;;;;;4989252;28;20294;-76
2021/05/29 03:19:36;;;;;;;9.97;7.13;;;;;;;;;;4991624;28;22371;-75
2021/05/29 03:22:02;;;;;;;9.13;6.50;;;;;;;;;;5001118;28;20195;-78
2021/05/29 03:24:27;;;;;;;11.60;8.07;;;;;;;;;;4989104;28;20544;-76
2021/05/29 03:26:53;;;;;;;10.13;7.07;;;;;;;;;;4990182;28;20188;-76
2021/05/29 03:29:18;;;;;;;10.07;7.10;;;;;;;;;;4988544;28;20286;-76
2021/05/29 03:31:43;;;;;;;8.57;7.07;;;;;;;;;;4992082;28;20191;-75
2021/05/29 03:34:09;;;;;;;10.50;7.37;;;;;;;;;;4992221;28;20211;-76
2021/05/29 03:36:34;;;;;;;8.93;6.67;;;;;;;;;;4993009;28;20210;-76
2021/05/29 03:39:00;;;;;;;10.40;6.93;;;;;;;;;;4989438;28;20222;-77
2021/05/29 03:41:25;;;;;;;13.70;7.37;;;;;;;;;;4989983;28;20184;-75
2021/05/29 03:43:53;;;;;;;9.67;7.13;;;;;;;;;;4986774;28;20200;-75
2021/05/29 03:46:18;;;;;;;10.63;7.20;;;;;;;;;;4990810;28;20211;-76
2021/05/29 03:48:43;;;;;;;9.97;7.13;;;;;;;;;;4987702;28;20211;-76
2021/05/29 03:51:09;;;;;;;11.27;7.50;;;;;;;;;;4996617;28;20540;-75
2021/05/29 03:53:34;;;;;;;11.53;7.13;;;;;;;;;;4983911;28;20591;-76
2021/05/29 03:55:59;;;;;;;9.93;7.00;;;;;;;;;;4984211;28;20203;-77
2021/05/29 03:58:25;;;;;;;13.10;7.10;;;;;;;;;;4985828;28;20700;-76
2021/05/29 04:00:50;;;;;;;10.33;7.63;;;;;;;;;;4997852;28;20279;-77
2021/05/29 04:03:15;;;;;;;12.53;8.40;;;;;;;;;;4985873;28;20180;-76
2021/05/29 04:05:41;;;;;;;9.33;7.03;;;;;;;;;;4982132;28;20192;-76
2021/05/29 04:08:06;;;;;;;11.17;7.17;;;;;;;;;;5000924;28;20695;-76
2021/05/29 04:10:33;;;;;;;11.07;7.67;;;;;;;;;;4985606;28;20199;-76
2021/05/29 04:12:59;;;;;;;10.67;7.30;;;;;;;;;;4985165;28;20199;-76
2021/05/29 04:15:25;;;;;;;9.60;7.60;;;;;;;;;;4978381;28;20179;-76
2021/05/29 04:17:50;;;;;;;11.60;8.23;;;;;;;;;;4983403;28;21011;-76
2021/05/29 04:20:18;;;;;;;13.83;8.17;;;;;;;;;;4984621;28;20705;-77
2021/05/29 04:22:44;;;;;;;13.27;8.67;;;;;;;;;;4989805;28;20184;-76
2021/05/29 04:25:13;;;;;;;12.37;9.20;;;;;;;;;;4984986;28;20242;-76
2021/05/29 04:27:41;;;;;;;12.37;8.10;;;;;;;;;;4986790;28;20192;-75
2021/05/29 04:30:10;;;;;;;12.23;8.70;;;;;;;;;;4981148;28;20254;-75
2021/05/29 04:32:36;;;;;;;14.27;8.83;;;;;;;;;;4985411;28;20749;-76
2021/05/29 04:35:04;;;;;;;12.00;8.67;;;;;;;;;;4981929;28;20424;-77
2021/05/29 04:37:29;;;;;;;15.13;9.53;;;;;;;;;;4988749;28;20214;-77
2021/05/29 04:39:54;;;;;;;12.83;8.63;;;;;;;;;;4985057;28;20259;-75
2021/05/29 04:42:20;;;;;;;12.83;8.67;;;;;;;;;;4984191;28;20188;-75
2021/05/29 04:44:47;;;;;;;11.73;8.53;;;;;;;;;;4986503;28;20188;-74
2021/05/29 04:47:13;;;;;;;13.60;9.40;;;;;;;;;;4989775;28;20208;-76
2021/05/29 04:49:38;;;;;;;11.40;8.33;;;;;;;;;;4985687;28;20257;-76
2021/05/29 04:52:04;;;;;;;14.07;8.90;;;;;;;;;;4987343;28;20192;-76
2021/05/29 04:54:30;;;;;;;14.33;9.13;;;;;;;;;;4987031;28;20200;-76
2021/05/29 04:56:55;;;;;;;13.90;8.77;;;;;;;;;;4983178;28;20208;-75
2021/05/29 04:59:21;;;;;;;11.97;8.00;;;;;;;;;;4979587;28;20185;-76
2021/05/29 05:01:50;;;;;;;12.43;9.00;;;;;;;;;;4982913;28;20258;-75
2021/05/29 05:04:17;;;;;;;14.53;8.73;;;;;;;;;;4987884;28;20199;-75
2021/05/29 05:06:43;;;;;;;13.30;9.37;;;;;;;;;;4982939;28;20184;-76
2021/05/29 05:09:08;;;;;;;16.97;9.07;;;;;;;;;;4993899;28;20203;-76
2021/05/29 05:11:35;;;;;;;12.67;8.40;;;;;;;;;;4983510;28;20560;-75
2021/05/29 05:14:01;;;;;;;11.40;8.10;;;;;;;;;;4985103;28;20278;-77
2021/05/29 05:16:27;;;;;;;11.60;8.03;;;;;;;;;;4985044;28;20200;-75
2021/05/29 05:18:55;;;;;;;8.53;6.80;;;;;;;;;;4985077;28;20790;-75
2021/05/29 05:21:21;;;;;;;9.50;7.23;;;;;;;;;;4987767;28;20194;-76
2021/05/29 05:23:50;;;;;;;10.03;7.27;;;;;;;;;;4984213;28;20197;-76
2021/05/29 05:26:16;;;;;;;11.33;7.90;;;;;;;;;;4987810;28;20172;-76
2021/05/29 05:28:45;;;;;;;10.23;7.47;;;;;;;;;;4983447;28;20220;-77
2021/05/29 05:31:11;;;;;;;9.37;7.70;;;;;;;;;;4987914;28;20206;-76
2021/05/29 05:33:42;;;;;;;11.63;7.63;;;;;;;;;;4983009;28;20188;-74
2021/05/29 05:36:09;;;;;;;10.70;7.70;;;;;;;;;;4981736;28;20250;-75
2021/05/29 05:38:36;;;;;;;11.60;7.70;;;;;;;;;;4989929;28;20627;-77
2021/05/29 05:41:02;;;;;;;10.80;7.67;;;;;;;;;;4987265;28;20188;-76
2021/05/29 05:43:27;;;;;;;10.97;7.50;;;;;;;;;;4982083;28;20193;-74
2021/05/29 05:45:52;;;;;;;12.27;7.00;;;;;;;;;;4987603;28;20659;-76
2021/05/29 05:48:18;;;;;;;11.10;6.83;;;;;;;;;;5005451;23;20245;-75
2021/05/29 05:51:19;;;;;;;10.03;7.47;;;;;;;;;;4991320;28;20639;-76
2021/05/29 05:53:37;;;;;;;9.37;6.80;;;;;;;;;;5007960;28;20288;-76
2021/05/29 05:56:05;;;;;;;8.73;5.97;;;;;;;;;;5002558;28;21035;-74
2021/05/29 05:58:33;;;;;;;11.27;6.30;;;;;;;;;;4993184;28;20239;-76
2021/05/29 06:00:59;;;;;;;6.97;5.83;;;;;;;;;;4986848;28;20203;-74
2021/05/29 06:03:25;;;;;;;9.23;6.07;;;;;;;;;;4982185;28;20196;-76
2021/05/29 06:05:51;;;;;;;9.17;6.40;;;;;;;;;;4984130;28;20183;-76
2021/05/29 06:08:18;;;;;;;8.43;6.23;;;;;;;;;;4979061;28;20215;-76
2021/05/29 06:10:44;;;;;;;12.70;5.93;;;;;;;;;;4977125;28;20177;-74
2021/05/29 06:13:14;;;;;;;8.63;6.30;;;;;;;;;;4978048;28;20540;-76
2021/05/29 06:21:07;;;;;;;7.50;5.30;;;;;;;;;;4976799;28;20787;-76
2021/05/29 06:23:32;;;;;;;8.23;5.67;;;;;;;;;;4985572;28;20187;-76
2021/05/29 06:25:58;;;;;;;8.50;5.57;;;;;;;;;;4983071;28;20194;-77
2021/05/29 06:28:23;;;;;;;9.70;5.20;;;;;;;;;;4977573;28;20726;-76
2021/05/29 06:30:48;;;;;;;9.53;5.77;;;;;;;;;;4978893;28;20248;-77
2021/05/29 06:33:13;;;;;;;9.63;5.43;;;;;;;;;;4979896;28;20271;-76
2021/05/29 06:35:39;;;;;;;7.17;5.43;;;;;;;;;;4977764;28;20203;-75
2021/05/29 06:38:06;;;;;;;7.20;5.27;;;;;;;;;;4979827;28;20250;-77
2021/05/29 06:40:32;;;;;;;9.23;5.23;;;;;;;;;;4977525;28;20211;-76
2021/05/29 06:42:57;;;;;;;8.13;5.57;;;;;;;;;;4976247;28;20204;-80
2021/05/29 06:45:22;;;;;;;7.73;5.50;;;;;;;;;;4967180;28;20184;-75
2021/05/29 06:47:48;;;;;;;6.90;5.60;;;;;;;;;;4975999;28;20275;-75
2021/05/29 06:50:14;;;;;;;6.77;5.27;;;;;;;;;;4976619;28;20712;-76
2021/05/29 06:52:43;;;;;;;8.83;5.30;;;;;;;;;;4972991;28;20279;-76
2021/05/29 07:00:57;;;;;;;8.07;5.63;;;;;;;;;;4983714;28;20714;-76
2021/05/29 07:03:22;;;;;;;6.00;4.80;;;;;;;;;;4985048;28;20191;-77
2021/05/29 07:05:47;;;;;;;8.33;5.70;;;;;;;;;;4981477;28;20250;-77
2021/05/29 07:08:13;;;;;;;8.93;6.03;;;;;;;;;;4979224;28;20267;-76
2021/05/29 07:10:38;;;;;;;5.50;4.80;;;;;;;;;;4988019;28;20192;-78
2021/05/29 07:13:03;;;;;;;9.13;5.13;;;;;;;;;;4978867;28;20215;-77
2021/05/29 07:15:35;;;;;;;6.37;4.63;;;;;;;;;;4984804;28;20188;-78
2021/05/29 07:18:08;;;;;;;10.40;5.33;;;;;;;;;;4983819;28;20223;-76
2021/05/29 07:20:33;;;;;;;9.20;5.73;;;;;;;;;;4980437;28;20222;-79
2021/05/29 07:23:00;;;;;;;10.20;5.10;;;;;;;;;;4989103;28;20653;-78
2021/05/29 07:25:28;;;;;;;7.27;5.83;;;;;;;;;;4981016;28;20667;-79
2021/05/29 07:27:54;;;;;;;6.63;4.83;;;;;;;;;;4976617;28;20204;-78
2021/05/29 07:30:19;;;;;;;7.80;4.97;;;;;;;;;;4986825;28;20222;-74
2021/05/29 07:32:45;;;;;;;7.63;4.83;;;;;;;;;;4982171;28;20195;-76
2021/05/29 07:35:11;;;;;;;8.00;5.00;;;;;;;;;;4982256;28;20276;-74
2021/05/29 07:37:36;;;;;;;7.97;4.30;;;;;;;;;;4981838;28;20774;-76
2021/05/29 07:40:04;;;;;;;10.40;4.73;;;;;;;;;;4984557;28;20188;-81
2021/05/29 07:42:30;;;;;;;8.10;4.60;;;;;;;;;;4982156;28;20240;-79
2021/05/29 07:44:55;;;;;;;10.40;4.50;;;;;;;;;;4965999;28;20283;-83
2021/05/29 07:47:20;;;;;;;5.13;4.40;;;;;;;;;;4983179;28;20264;-79
2021/05/29 07:49:46;;;;;;;9.83;4.73;;;;;;;;;;4981766;28;21579;-78
2021/05/29 07:52:11;;;;;;;5.70;4.33;;;;;;;;;;4982118;28;20222;-87
2021/05/29 07:54:37;;;;;;;8.23;5.17;;;;;;;;;;4980605;28;20204;-78
2021/05/29 07:57:03;;;;;;;10.53;5.30;;;;;;;;;;4983614;28;20254;-78
2021/05/29 07:59:28;;;;;;;6.57;4.73;;;;;;;;;;4981337;28;20291;-78
2021/05/29 08:01:53;;;;;;;9.70;6.00;;;;;;;;;;4966271;28;20223;-79
2021/05/29 08:04:18;;;;;;;7.77;4.67;;;;;;;;;;4983632;28;20188;-77
2021/05/29 08:06:44;;;;;;;6.63;4.83;;;;;;;;;;4980857;28;20195;-79
2021/05/29 08:09:10;;;;;;;7.57;5.23;;;;;;;;;;4984210;28;20199;-79
2021/05/29 08:11:37;;;;;;;5.53;4.40;;;;;;;;;;4982484;28;20184;-80
2021/05/29 08:14:06;;;;;;;8.77;4.97;;;;;;;;;;4980853;28;20234;-79
2021/05/29 08:16:32;;;;;;;12.57;5.13;;;;;;;;;;4983210;28;20302;-77
2021/05/29 08:18:57;;;;;;;7.00;4.63;;;;;;;;;;4981630;28;20515;-78
2021/05/29 08:21:25;;;;;;;7.93;5.20;;;;;;;;;;4967354;28;20188;-77
2021/05/29 08:23:52;;;;;;;9.03;5.60;;;;;;;;;;4964655;28;20200;-76
2021/05/29 08:26:17;;;;;;;9.87;5.60;;;;;;;;;;4982194;28;20215;-79
2021/05/29 08:28:44;;;;;;;7.20;5.03;;;;;;;;;;4981767;28;20216;-80
2021/05/29 08:31:12;;;;;;;6.07;5.07;;;;;;;;;;4981524;28;20218;-80
2021/05/29 08:33:40;;;;;;;9.30;5.63;;;;;;;;;;4984549;28;20184;-79
2021/05/29 08:36:08;;;;;;;7.00;4.70;;;;;;;;;;4984635;28;20222;-79
2021/05/29 08:38:34;;;;;;;7.83;5.83;;;;;;;;;;4986290;28;20696;-77
2021/05/29 08:40:59;;;;;;;6.20;5.13;;;;;;;;;;4989241;28;20207;-78
2021/05/29 08:43:25;;;;;;;11.90;6.20;;;;;;;;;;4988403;28;20689;-77
2021/05/29 08:45:50;;;;;;;7.47;5.10;;;;;;;;;;4967500;28;20228;-80
2021/05/29 08:48:16;;;;;;;7.53;5.77;;;;;;;;;;4981737;28;20211;-77
2021/05/29 08:53:29;;;;;;;6.97;4.93;;;;;;;;;;4990289;28;20245;-82
2021/05/29 08:55:54;;;;;;;6.83;5.13;;;;;;;;;;4991539;28;20232;-79
2021/05/29 08:58:20;;;;;;;6.57;5.07;;;;;;;;;;4983195;28;20231;-81
2021/05/29 09:00:48;;;;;;;7.20;5.40;;;;;;;;;;4958946;28;20639;-81
2021/05/29 09:03:15;;;;;;;7.53;5.17;;;;;;;;;;4979964;28;20227;-80
2021/05/29 09:05:53;;;;;;;6.93;5.40;;;;;;;;;;4981047;28;20578;-80
2021/05/29 09:08:21;;;;;;;7.10;4.93;;;;;;;;;;4981180;28;20724;-80
2021/05/29 09:10:55;;;;;;;5.87;4.83;;;;;;;;;;4978165;28;20310;-81
2021/05/29 09:13:29;;;;;;;8.00;5.00;;;;;;;;;;4977791;28;20187;-80
2021/05/29 09:16:05;;;;;;;8.67;5.07;;;;;;;;;;4979511;28;20202;-80
2021/05/29 09:18:40;;;;;;;5.03;4.23;;;;;;;;;;4976626;28;20228;-80
2021/05/29 09:21:24;;;;;;;6.43;5.00;;;;;;;;;;4961055;28;20416;-81
2021/05/29 09:24:05;;;;;;;9.10;4.97;;;;;;;;;;4986588;28;20188;-82
2021/05/29 09:26:48;;;;;;;8.47;4.63;;;;;;;;;;4980871;28;20200;-81
2021/05/29 09:29:24;;;;;;;7.63;4.10;;;;;;;;;;4964635;28;20558;-81
2021/05/29 09:31:50;;;;;;;5.53;4.37;;;;;;;;;;4979013;28;20195;-79
2021/05/29 09:34:27;;;;;;;8.10;4.20;;;;;;;;;;4979932;28;20246;-81
2021/05/29 09:37:23;;;;;;;6.57;4.53;;;;;;;;;;4982652;28;20782;-78
2021/05/29 09:39:51;;;;;;;7.23;4.43;;;;;;;;;;4986572;28;20188;-78
2021/05/29 09:42:17;;;;;;;6.93;5.17;;;;;;;;;;4978175;28;20218;-81
2021/05/29 09:44:45;;;;;;;7.53;4.90;;;;;;;;;;4980559;28;20567;-80
2021/05/29 09:47:14;;;;;;;8.23;5.53;;;;;;;;;;4965347;28;20215;-80
2021/05/29 09:49:51;;;;;;;6.53;5.10;;;;;;;;;;4983375;28;20789;-79
2021/05/29 09:52:36;;;;;;;8.23;4.93;;;;;;;;;;4982126;28;20188;-80
2021/05/29 09:55:08;;;;;;;8.00;4.80;;;;;;;;;;4983754;28;20549;-81
2021/05/29 09:57:51;;;;;;;9.10;5.70;;;;;;;;;;4982733;28;20231;-80
2021/05/29 10:00:17;;;;;;;7.47;5.47;;;;;;;;;;4981075;28;20206;-80
2021/05/29 10:03:03;;;;;;;7.27;5.43;;;;;;;;;;4982934;28;20634;-80
2021/05/29 10:05:30;;;;;;;6.10;5.43;;;;;;;;;;4982296;28;20191;-81
2021/05/29 10:07:56;;;;;;;7.77;5.27;;;;;;;;;;4982415;28;20593;-81
2021/05/29 10:10:21;;;;;;;9.50;5.10;;;;;;;;;;4978763;28;20247;-82
2021/05/29 10:12:46;;;;;;;5.97;5.37;;;;;;;;;;4962860;28;20554;-80
2021/05/29 10:15:12;;;;;;;11.20;5.10;;;;;;;;;;4979663;28;20727;-80
2021/05/29 10:17:39;;;;;;;6.63;5.83;;;;;;;;;;4981107;28;20905;-81
2021/05/29 10:20:06;;;;;;;7.80;5.50;;;;;;;;;;4975185;28;20238;-79
2021/05/29 10:22:32;;;;;;;8.37;6.20;;;;;;;;;;4976155;28;20542;-78
2021/05/29 10:24:57;;;;;;;7.47;6.00;;;;;;;;;;4963644;28;20192;-77
2021/05/29 10:27:28;;;;;;;10.67;5.80;;;;;;;;;;4964936;28;20259;-79
2021/05/29 10:29:56;;;;;;;9.83;5.63;;;;;;;;;;4979917;28;20271;-76
2021/05/29 10:32:22;;;;;;;10.47;6.40;;;;;;;;;;4980238;28;20207;-76
2021/05/29 10:35:22;;;;;;;11.03;6.07;;;;;;;;;;4964957;28;20196;-76
2021/05/29 10:37:57;;;;;;;8.90;6.43;;;;;;;;;;4975915;28;20262;-76
2021/05/29 10:40:35;;;;;;;7.13;5.83;;;;;;;;;;4984051;28;20205;-75
2021/05/29 10:43:07;;;;;;;7.77;6.10;;;;;;;;;;4982248;28;20222;-75
2021/05/29 10:45:37;;;;;;;9.03;6.60;;;;;;;;;;4984305;28;20203;-77
2021/05/29 10:48:12;;;;;;;10.23;5.87;;;;;;;;;;4987281;28;20212;-74
2021/05/29 10:51:08;;;;;;;7.70;5.70;;;;;;;;;;4986484;28;20224;-75
2021/05/29 10:53:50;;;;;;;8.03;5.57;;;;;;;;;;4982499;28;20196;-77
2021/05/29 10:56:15;;;;;;;9.23;6.33;;;;;;;;;;4989865;28;20229;-76
2021/05/29 10:59:07;;;;;;;9.03;5.93;;;;;;;;;;4977780;28;20236;-76
2021/05/29 11:01:32;;;;;;;9.33;5.93;;;;;;;;;;4983048;28;20286;-76
2021/05/29 11:04:15;;;;;;;6.33;5.07;;;;;;;;;;4989191;28;20262;-76
2021/05/29 11:06:49;;;;;;;8.40;5.57;;;;;;;;;;4988782;28;20210;-75
2021/05/29 11:09:16;;;;;;;8.80;6.10;;;;;;;;;;4986723;28;20220;-77
2021/05/29 11:11:48;;;;;;;7.50;5.90;;;;;;;;;;4997048;28;20219;-75
2021/05/29 11:14:24;;;;;;;6.60;5.87;;;;;;;;;;4974820;28;20210;-75
2021/05/29 11:16:50;;;;;;;8.77;6.10;;;;;;;;;;4988106;28;20855;-76
2021/05/29 11:19:21;;;;;;;9.17;5.63;;;;;;;;;;4987555;28;20199;-76
2021/05/29 11:22:11;;;;;;;7.40;4.97;;;;;;;;;;4989547;28;20199;-76
2021/05/29 11:24:40;;;;;;;8.63;5.60;;;;;;;;;;4994323;28;20663;-77
2021/05/29 11:27:17;;;;;;;7.90;5.40;;;;;;;;;;4988566;28;20675;-75
2021/05/29 11:29:47;;;;;;;8.23;5.10;;;;;;;;;;4991028;28;20762;-75
2021/05/29 11:32:15;;;;;;;9.07;5.57;;;;;;;;;;4975087;28;20214;-76
2021/05/29 11:34:41;;;;;;;7.73;5.33;;;;;;;;;;4989283;28;20195;-76
2021/05/29 11:37:12;;;;;;;7.57;5.90;;;;;;;;;;4981747;28;20219;-75
2021/05/29 11:39:37;;;;;;;9.20;6.00;;;;;;;;;;4983579;28;20230;-74
2021/05/29 11:42:02;;;;;;;7.90;5.50;;;;;;;;;;4987012;28;20226;-75
2021/05/29 11:44:31;;;;;;;9.03;5.33;;;;;;;;;;4984387;28;20563;-76
2021/05/29 11:46:58;;;;;;;6.70;5.47;;;;;;;;;;4982779;28;20195;-76
2021/05/29 11:49:35;;;;;;;10.97;6.17;;;;;;;;;;4982622;28;20224;-76
2021/05/29 11:52:02;;;;;;;10.53;6.07;;;;;;;;;;4986199;28;20589;-77
2021/05/29 11:54:35;;;;;;;7.70;6.03;;;;;;;;;;4973546;28;20202;-75
2021/05/29 11:57:00;;;;;;;8.50;5.77;;;;;;;;;;4984588;28;20215;-76
2021/05/29 11:59:26;;;;;;;8.80;6.10;;;;;;;;;;4969384;28;20188;-79
2021/05/29 12:01:54;;;;;;;6.77;5.73;;;;;;;;;;4973947;28;20195;-75
2021/05/29 12:04:29;;;;;;;7.73;5.97;;;;;;;;;;4981830;28;20203;-76
2021/05/29 12:06:59;;;;;;;8.87;6.37;;;;;;;;;;4990553;28;20203;-76
2021/05/29 12:09:41;;;;;;;10.57;6.80;;;;;;;;;;4985640;28;20596;-76
2021/05/29 12:12:08;;;;;;;8.33;6.23;;;;;;;;;;4988666;28;20198;-78
2021/05/29 12:14:41;;;;;;;11.90;6.53;;;;;;;;;;4984691;28;20192;-77
2021/05/29 12:17:11;;;;;;;10.53;6.60;;;;;;;;;;4981299;28;20310;-78
2021/05/29 12:19:39;;;;;;;7.77;6.27;;;;;;;;;;4989088;28;20216;-86
2021/05/29 12:22:08;;;;;;;9.07;6.60;;;;;;;;;;4988187;28;20203;-74
2021/05/29 12:24:37;;;;;;;9.70;6.47;;;;;;;;;;4968172;28;20702;-74
2021/05/29 12:27:02;;;;;;;9.20;6.40;;;;;;;;;;4987617;28;20188;-79
2021/05/29 12:29:28;;;;;;;8.30;5.93;;;;;;;;;;4988638;28;20334;-78
2021/05/29 12:31:56;;;;;;;8.33;6.73;;;;;;;;;;4987291;28;20188;-76
2021/05/29 12:34:24;;;;;;;8.50;5.90;;;;;;;;;;4986107;28;20232;-77
2021/05/29 12:36:59;;;;;;;11.00;6.40;;;;;;;;;;4979107;28;20629;-79
2021/05/29 12:39:46;;;;;;;8.50;6.57;;;;;;;;;;4982043;28;20187;-83
2021/05/29 12:42:56;;;;;;;8.67;6.30;;;;;;;;;;4990162;28;20213;-85
2021/05/29 12:45:27;;;;;;;9.13;6.77;;;;;;;;;;4929694;29;20240;-76
2021/05/29 12:48:10;;;;;;;11.47;6.23;;;;;;;;;;4972879;28;20234;-79
2021/05/29 12:53:28;;;;;;;12.27;7.27;;;;;;;;;;4985330;28;20190;-81
2021/05/29 12:56:19;;;;;;;7.57;6.50;;;;;;;;;;4985530;28;20200;-80
2021/05/29 12:59:03;;;;;;;10.03;6.20;;;;;;;;;;4999673;28;20219;-80
2021/05/29 13:12:14;;;;;;;9.20;5.60;;;;;;;;;;4992783;28;20196;-76
2021/05/29 13:14:41;;;;;;;10.03;5.80;;;;;;;;;;4983711;28;20212;-79
2021/05/29 13:17:09;;;;;;;13.30;6.30;;;;;;;;;;4987566;28;20669;-85
2021/05/29 13:20:14;;;;;;;9.00;6.33;;;;;;;;;;4985210;28;20220;-83
2021/05/29 13:22:42;;;;;;;10.23;6.70;;;;;;;;;;4908217;29;20193;-82
2021/05/29 13:25:12;;;;;;;11.57;6.90;;;;;;;;;;4904242;29;20202;-83
2021/05/29 13:27:54;;;;;;;9.70;7.10;;;;;;;;;;4939433;28;20219;-81
2021/05/29 13:30:25;;;;;;;9.90;6.43;;;;;;;;;;4984257;28;20239;-82
2021/05/29 13:33:05;;;;;;;10.50;6.90;;;;;;;;;;4980917;28;20631;-82
2021/05/29 13:35:31;;;;;;;10.07;7.17;;;;;;;;;;4986880;28;20218;-82
2021/05/29 13:38:01;;;;;;;11.10;7.23;;;;;;;;;;4980763;28;20306;-83
2021/05/29 13:40:27;;;;;;;11.47;6.57;;;;;;;;;;4989192;28;20206;-82
2021/05/29 13:42:53;;;;;;;9.33;6.63;;;;;;;;;;4987869;28;20192;-85
2021/05/29 13:45:21;;;;;;;11.20;7.10;;;;;;;;;;4982824;28;20199;-83
2021/05/29 13:47:49;;;;;;;11.93;7.70;;;;;;;;;;4969521;28;20295;-85
2021/05/29 13:50:16;;;;;;;11.00;6.87;;;;;;;;;;4986059;28;20262;-82
2021/05/29 13:52:41;;;;;;;8.90;7.00;;;;;;;;;;4985870;28;20184;-82
2021/05/29 13:55:07;;;;;;;11.30;7.07;;;;;;;;;;4984685;28;20227;-81
2021/05/29 13:57:32;;;;;;;9.03;6.67;;;;;;;;;;4991172;28;20338;-78
2021/05/29 13:59:58;;;;;;;8.37;6.23;;;;;;;;;;4984875;28;20282;-75
2021/05/29 14:02:23;;;;;;;8.00;6.50;;;;;;;;;;4970967;28;20191;-80
2021/05/29 14:04:48;;;;;;;10.57;6.37;;;;;;;;;;4983841;28;20204;-87
2021/05/29 14:07:15;;;;;;;8.63;6.93;;;;;;;;;;4975680;28;20282;-86
2021/05/29 14:09:41;;;;;;;9.80;6.53;;;;;;;;;;4965825;28;20184;-84
2021/05/29 14:12:07;;;;;;;7.67;6.77;;;;;;;;;;4979676;28;20195;-84
2021/05/29 14:14:34;;;;;;;8.33;6.20;;;;;;;;;;4960091;28;20554;-85
2021/05/29 14:17:00;;;;;;;10.17;6.10;;;;;;;;;;4978200;28;20219;-86
2021/05/29 14:19:25;;;;;;;8.90;5.77;;;;;;;;;;4972946;28;20196;-83
2021/05/29 14:21:51;;;;;;;8.90;6.27;;;;;;;;;;4981251;28;20192;-83
2021/05/29 14:24:16;;;;;;;8.23;5.93;;;;;;;;;;4973442;28;20199;-82
2021/05/29 14:26:41;;;;;;;9.47;7.30;;;;;;;;;;4980032;28;20570;-82
2021/05/29 14:29:07;;;;;;;8.33;6.13;;;;;;;;;;4976964;28;20208;-84
2021/05/29 14:31:34;;;;;;;7.33;6.53;;;;;;;;;;4976575;28;20180;-88
2021/05/29 14:34:06;;;;;;;9.83;6.53;;;;;;;;;;4963370;28;20750;-86
2021/05/29 14:36:32;;;;;;;8.33;6.47;;;;;;;;;;4961271;28;20184;-87
2021/05/29 14:38:59;;;;;;;7.43;5.83;;;;;;;;;;4977082;28;20289;-86
2021/05/29 14:41:25;;;;;;;6.83;6.10;;;;;;;;;;4975505;28;20192;-84
2021/05/29 14:43:51;;;;;;;7.40;5.53;;;;;;;;;;4979727;28;20246;-83
2021/05/29 14:46:16;;;;;;;9.60;6.77;;;;;;;;;;4974783;28;20203;-83
2021/05/29 14:48:45;;;;;;;9.27;6.87;;;;;;;;;;4976163;28;20219;-81
2021/05/29 14:51:20;;;;;;;7.30;6.13;;;;;;;;;;4979077;28;20645;-81
2021/05/29 14:53:52;;;;;;;10.07;7.23;;;;;;;;;;4977428;28;20188;-84
2021/05/29 14:56:20;;;;;;;7.80;6.17;;;;;;;;;;4980026;28;20671;-87
2021/05/29 14:58:46;;;;;;;8.60;7.10;;;;;;;;;;4983789;28;20211;-86
2021/05/29 15:01:11;;;;;;;9.10;6.77;;;;;;;;;;4978536;28;20231;-88
2021/05/29 15:03:39;;;;;;;7.50;6.33;;;;;;;;;;4967466;28;20244;-85
2021/05/29 15:06:06;;;;;;;8.70;6.47;;;;;;;;;;4977300;28;20184;-88
2021/05/29 15:08:35;;;;;;;6.70;6.00;;;;;;;;;;4980404;28;20745;-88
2021/05/29 15:11:02;;;;;;;6.50;5.60;;;;;;;;;;4977064;28;20184;-87
2021/05/29 15:13:28;;;;;;;6.97;5.20;;;;;;;;;;4987126;28;20194;-86